createdAt,value
2018-06-14T00:00:54.635Z,86.64
2018-06-14T00:02:29.405Z,86.91
2018-06-14T00:04:04.252Z,86.74
2018-06-14T00:05:40.656Z,86.34
2018-06-14T00:07:15.437Z,86.38
2018-06-14T00:08:51.343Z,86.83
2018-06-14T00:10:26.149Z,87.06
2018-06-14T00:12:01.275Z,86.56
2018-06-14T00:13:36.068Z,87.05
2018-06-14T00:15:13.065Z,86.90
2018-06-14T00:16:48.026Z,86.98
2018-06-14T00:18:22.821Z,86.43
2018-06-14T00:19:58.174Z,86.57
2018-06-14T00:21:33.139Z,86.72
2018-06-14T00:23:07.988Z,86.47
2018-06-14T00:24:44.799Z,86.56
2018-06-14T00:26:21.631Z,86.52
2018-06-14T00:28:03.609Z,86.49
2018-06-14T00:29:38.785Z,87.20
2018-06-14T00:31:13.596Z,86.81
2018-06-14T00:32:49.309Z,87.38
2018-06-14T00:34:26.729Z,87.48
2018-06-14T00:36:01.514Z,87.08
2018-06-14T00:37:36.211Z,87.00
2018-06-14T00:39:12.285Z,87.23
2018-06-14T00:40:47.132Z,86.86
2018-06-14T00:42:21.803Z,86.88
2018-06-14T00:43:56.519Z,87.16
2018-06-14T00:45:31.154Z,87.07
2018-06-14T00:47:06.375Z,87.42
2018-06-14T00:48:41.325Z,87.17
2018-06-14T00:50:17.125Z,87.35
2018-06-14T00:51:52.031Z,86.70
2018-06-14T00:53:27.614Z,86.92
2018-06-14T00:55:05.531Z,87.01
2018-06-14T00:56:50.962Z,86.92
2018-06-14T00:58:26.373Z,87.61
2018-06-14T01:00:01.169Z,87.46
2018-06-14T01:01:36.451Z,87.47
2018-06-14T01:03:12.634Z,87.32
2018-06-14T01:04:48.499Z,87.42
2018-06-14T01:06:23.525Z,87.36
2018-06-14T01:07:58.965Z,87.35
2018-06-14T01:09:33.769Z,87.21
2018-06-14T01:11:10.086Z,87.34
2018-06-14T01:12:46.977Z,87.55
2018-06-14T01:14:23.148Z,87.53
2018-06-14T01:15:59.623Z,87.63
2018-06-14T01:17:56.985Z,87.57
2018-06-14T01:19:31.884Z,87.13
2018-06-14T01:21:07.139Z,87.01
2018-06-14T01:22:45.078Z,87.39
2018-06-14T01:24:20.452Z,87.50
2018-06-14T01:26:03.266Z,87.64
2018-06-14T01:27:39.609Z,87.49
2018-06-14T01:29:16.485Z,87.44
2018-06-14T01:30:51.348Z,88.09
2018-06-14T01:32:27.833Z,87.66
2018-06-14T01:34:02.606Z,87.57
2018-06-14T01:35:38.891Z,87.71
2018-06-14T01:37:14.013Z,87.80
2018-06-14T01:38:49.170Z,87.72
2018-06-14T01:40:24.765Z,87.76
2018-06-14T01:41:59.618Z,87.56
2018-06-14T01:43:34.268Z,87.69
2018-06-14T01:45:09.727Z,87.87
2018-06-14T01:46:44.836Z,87.38
2018-06-14T01:48:20.596Z,87.40
2018-06-14T01:49:55.860Z,87.47
2018-06-14T01:51:30.696Z,87.80
2018-06-14T01:53:05.654Z,88.12
2018-06-14T01:54:40.558Z,87.93
2018-06-14T01:56:15.558Z,87.71
2018-06-14T01:57:52.627Z,87.92
2018-06-14T01:59:30.088Z,88.10
2018-06-14T02:01:05.416Z,87.87
2018-06-14T02:02:40.251Z,87.98
2018-06-14T02:04:15.012Z,87.51
2018-06-14T02:05:49.737Z,87.69
2018-06-14T02:07:27.256Z,88.05
2018-06-14T02:09:03.552Z,88.30
2018-06-14T02:10:40.181Z,88.10
2018-06-14T02:12:15.531Z,88.02
2018-06-14T02:13:50.942Z,88.16
2018-06-14T02:15:28.250Z,87.70
2018-06-14T02:17:03.448Z,87.55
2018-06-14T02:18:42.610Z,87.69
2018-06-14T02:20:19.603Z,87.73
2018-06-14T02:21:54.230Z,87.66
2018-06-14T02:23:29.263Z,87.56
2018-06-14T02:25:04.543Z,87.96
2018-06-14T02:26:41.577Z,88.12
2018-06-14T02:28:17.344Z,88.04
2018-06-14T02:29:52.135Z,88.14
2018-06-14T02:31:27.763Z,88.40
2018-06-14T02:33:04.583Z,88.19
2018-06-14T02:34:39.491Z,88.15
2018-06-14T02:36:14.471Z,87.89
2018-06-14T02:37:49.879Z,87.80
2018-06-14T02:39:24.689Z,87.77
2018-06-14T02:40:59.664Z,88.19
2018-06-14T02:42:34.568Z,88.07
2018-06-14T02:44:10.497Z,88.05
2018-06-14T02:45:46.195Z,87.97
2018-06-14T02:47:20.927Z,87.87
2018-06-14T02:48:56.572Z,88.26
2018-06-14T02:50:31.283Z,88.28
2018-06-14T02:52:06.199Z,88.35
2018-06-14T02:53:40.956Z,87.95
2018-06-14T02:55:15.712Z,88.11
2018-06-14T02:56:50.912Z,88.09
2018-06-14T02:58:25.647Z,88.33
2018-06-14T03:00:00.425Z,87.73
2018-06-14T03:01:35.503Z,88.43
2018-06-14T03:03:10.414Z,88.35
2018-06-14T03:04:48.561Z,88.35
2018-06-14T03:06:23.524Z,88.70
2018-06-14T03:07:58.378Z,88.42
2018-06-14T03:09:34.524Z,88.41
2018-06-14T03:11:10.873Z,88.33
2018-06-14T03:12:46.287Z,88.11
2018-06-14T03:14:21.018Z,88.42
2018-06-14T03:15:56.399Z,88.47
2018-06-14T03:17:31.090Z,88.16
2018-06-14T03:19:05.921Z,88.10
2018-06-14T03:20:41.363Z,88.41
2018-06-14T03:22:17.479Z,88.74
2018-06-14T03:23:52.256Z,88.20
2018-06-14T03:25:27.865Z,88.66
2018-06-14T03:27:02.659Z,88.54
2018-06-14T03:28:38.119Z,88.40
2018-06-14T03:30:14.958Z,88.49
2018-06-14T03:31:50.480Z,88.41
2018-06-14T03:33:25.740Z,88.58
2018-06-14T03:35:00.511Z,88.87
2018-06-14T03:36:36.468Z,88.60
2018-06-14T03:38:11.172Z,88.85
2018-06-14T03:39:45.951Z,88.51
2018-06-14T03:41:20.707Z,88.88
2018-06-14T03:42:57.289Z,88.69
2018-06-14T03:44:32.541Z,88.54
2018-06-14T03:46:07.359Z,88.98
2018-06-14T03:47:42.024Z,88.46
2018-06-14T03:49:18.778Z,88.21
2018-06-14T03:50:53.981Z,88.17
2018-06-14T03:52:29.594Z,87.91
2018-06-14T03:54:04.357Z,88.09
2018-06-14T03:55:39.189Z,87.83
2018-06-14T03:57:13.897Z,88.32
2018-06-14T03:58:48.913Z,87.88
2018-06-14T04:00:24.637Z,87.86
2018-06-14T04:01:59.811Z,87.87
2018-06-14T04:03:34.539Z,87.59
2018-06-14T04:05:09.382Z,87.80
2018-06-14T04:06:45.284Z,87.81
2018-06-14T04:08:21.002Z,87.68
2018-06-14T04:09:57.849Z,87.90
2018-06-14T04:11:32.503Z,87.65
2018-06-14T04:13:07.471Z,87.73
2018-06-14T04:14:42.127Z,87.91
2018-06-14T04:16:18.628Z,87.89
2018-06-14T04:17:57.667Z,87.91
2018-06-14T04:19:32.429Z,87.79
2018-06-14T04:21:07.206Z,87.49
2018-06-14T04:22:41.996Z,87.85
2018-06-14T04:24:17.220Z,87.43
2018-06-14T04:25:52.002Z,87.57
2018-06-14T04:27:26.792Z,87.30
2018-06-14T04:29:01.636Z,87.42
2018-06-14T04:30:37.488Z,86.93
2018-06-14T04:32:12.603Z,86.99
2018-06-14T04:33:47.260Z,87.02
2018-06-14T04:35:24.344Z,87.08
2018-06-14T04:37:00.446Z,87.10
2018-06-14T04:38:35.884Z,86.88
2018-06-14T04:40:11.130Z,86.33
2018-06-14T04:41:47.883Z,87.04
2018-06-14T04:43:23.604Z,86.86
2018-06-14T04:44:58.304Z,86.78
2018-06-14T04:46:34.287Z,86.55
2018-06-14T04:48:10.193Z,86.46
2018-06-14T04:49:45.795Z,86.54
2018-06-14T04:51:21.388Z,85.22
2018-06-14T04:52:57.103Z,84.90
2018-06-14T04:54:31.787Z,85.31
2018-06-14T04:56:07.808Z,85.32
2018-06-14T04:57:42.773Z,84.80
2018-06-14T04:59:17.632Z,84.51
2018-06-14T05:00:52.770Z,84.53
2018-06-14T05:02:28.594Z,83.99
2018-06-14T05:04:03.779Z,82.96
2018-06-14T05:05:39.178Z,83.14
2018-06-14T05:07:14.075Z,82.24
2018-06-14T05:08:48.853Z,80.48
2018-06-14T05:10:23.908Z,82.07
2018-06-14T05:11:59.983Z,81.17
2018-06-14T05:13:35.570Z,80.08
2018-06-14T05:15:11.730Z,79.88
2018-06-14T05:16:46.878Z,78.04
2018-06-14T05:18:23.173Z,77.35
2018-06-14T05:19:57.851Z,77.29
2018-06-14T05:21:34.150Z,76.39
2018-06-14T05:23:08.976Z,74.67
2018-06-14T05:24:44.739Z,74.37
2018-06-14T05:26:19.571Z,73.60
2018-06-14T05:29:54.338Z,71.73
2018-06-14T05:31:29.286Z,71.35
2018-06-14T05:33:04.702Z,69.49
2018-06-14T05:34:40.632Z,68.27
2018-06-14T05:36:18.948Z,66.82
2018-06-14T05:37:53.908Z,66.47
2018-06-14T05:39:28.640Z,65.85
2018-06-14T05:41:03.436Z,65.27
2018-06-14T05:42:38.181Z,63.99
2018-06-14T05:44:15.514Z,63.26
2018-06-14T05:45:50.288Z,65.10
2018-06-14T05:47:25.305Z,63.07
2018-06-14T05:49:02.407Z,63.17
2018-06-14T05:50:37.241Z,61.82
2018-06-14T05:52:14.639Z,63.42
2018-06-14T05:53:50.377Z,61.38
2018-06-14T05:55:26.389Z,59.84
2018-06-14T05:57:02.520Z,60.96
2018-06-14T05:58:37.175Z,59.22
2018-06-14T06:00:19.497Z,59.68
2018-06-14T06:01:54.361Z,61.31
2018-06-14T06:03:29.644Z,59.35
2018-06-14T06:05:05.171Z,57.46
2018-06-14T06:06:40.765Z,58.81
2018-06-14T06:08:15.563Z,58.07
2018-06-14T06:09:52.165Z,56.64
2018-06-14T06:11:27.004Z,58.39
2018-06-14T06:13:03.197Z,57.31
2018-06-14T06:14:38.555Z,56.50
2018-06-14T06:16:16.840Z,58.12
2018-06-14T06:17:51.651Z,57.49
2018-06-14T06:19:26.573Z,56.14
2018-06-14T06:21:01.864Z,57.03
2018-06-14T06:22:36.673Z,57.37
2018-06-14T06:24:12.245Z,55.66
2018-06-14T06:25:52.800Z,56.23
2018-06-14T06:27:27.577Z,56.25
2018-06-14T06:29:02.719Z,55.08
2018-06-14T06:30:38.038Z,56.00
2018-06-14T06:32:13.167Z,56.79
2018-06-14T06:33:47.841Z,55.08
2018-06-14T06:35:25.178Z,54.11
2018-06-14T06:37:00.364Z,54.10
2018-06-14T06:38:38.393Z,56.25
2018-06-14T06:40:13.152Z,54.35
2018-06-14T06:41:48.030Z,53.00
2018-06-14T06:43:23.267Z,52.89
2018-06-14T06:44:58.066Z,53.75
2018-06-14T06:46:32.815Z,53.39
2018-06-14T06:48:07.514Z,52.04
2018-06-14T06:49:42.706Z,51.72
2018-06-14T06:51:17.405Z,51.60
2018-06-14T06:52:52.891Z,50.79
2018-06-14T06:54:27.808Z,50.91
2018-06-14T06:56:02.601Z,51.82
2018-06-14T06:57:37.814Z,50.37
2018-06-14T06:59:14.784Z,50.12
2018-06-14T07:00:50.186Z,49.40
2018-06-14T07:02:24.845Z,50.23
2018-06-14T07:04:01.560Z,50.14
2018-06-14T07:05:39.810Z,50.24
2018-06-14T07:07:14.840Z,50.95
2018-06-14T07:08:50.651Z,51.20
2018-06-14T07:10:31.050Z,49.20
2018-06-14T07:12:09.845Z,48.21
2018-06-14T07:13:45.120Z,49.62
2018-06-14T07:15:22.313Z,49.80
2018-06-14T07:16:58.460Z,48.90
2018-06-14T07:18:33.278Z,47.31
2018-06-14T07:20:09.752Z,48.95
2018-06-14T07:21:45.683Z,50.71
2018-06-14T07:23:21.198Z,49.85
2018-06-14T07:24:57.587Z,49.34
2018-06-14T07:26:33.630Z,47.67
2018-06-14T07:28:11.648Z,49.87
2018-06-14T07:29:49.856Z,48.53
2018-06-14T07:31:26.024Z,47.97
2018-06-14T07:33:01.203Z,47.60
2018-06-14T07:34:35.972Z,48.10
2018-06-14T07:36:11.513Z,47.56
2018-06-14T07:37:48.184Z,48.41
2018-06-14T07:39:24.133Z,47.53
2018-06-14T07:41:01.123Z,48.90
2018-06-14T07:42:37.884Z,47.34
2018-06-14T07:44:12.709Z,48.89
2018-06-14T07:45:51.598Z,48.45
2018-06-14T07:49:21.452Z,46.68
2018-06-14T07:50:58.148Z,47.62
2018-06-14T07:52:34.505Z,45.75
2018-06-14T07:54:09.462Z,49.86
2018-06-14T07:55:44.371Z,46.94
2018-06-14T07:57:20.183Z,46.94
2018-06-14T07:58:56.482Z,46.79
2018-06-14T08:00:31.340Z,45.60
2018-06-14T08:02:06.161Z,47.35
2018-06-14T08:03:41.294Z,47.44
2018-06-14T08:05:16.418Z,47.76
2018-06-14T08:06:51.461Z,48.22
2018-06-14T08:08:26.455Z,48.26
2018-06-14T08:10:01.292Z,48.46
2018-06-14T08:11:36.376Z,47.24
2018-06-14T08:13:11.590Z,48.12
2018-06-14T08:14:49.309Z,45.90
2018-06-14T08:16:26.451Z,44.88
2018-06-14T08:18:01.943Z,45.73
2018-06-14T08:19:36.905Z,42.78
2018-06-14T08:21:12.095Z,45.17
2018-06-14T08:22:48.514Z,42.96
2018-06-14T08:24:25.659Z,43.37
2018-06-14T08:27:29.016Z,44.78
2018-06-14T08:29:06.905Z,46.41
2018-06-14T08:30:43.468Z,44.44
2018-06-14T08:32:22.334Z,44.78
2018-06-14T08:33:59.584Z,44.46
2018-06-14T08:35:36.375Z,44.96
2018-06-14T08:37:12.264Z,43.21
2018-06-14T08:38:50.075Z,45.25
2018-06-14T08:40:27.546Z,44.60
2018-06-14T08:42:02.978Z,44.31
2018-06-14T08:43:39.565Z,42.46
2018-06-14T08:45:20.285Z,44.30
2018-06-14T08:46:57.676Z,45.89
2018-06-14T08:48:34.381Z,44.95
2018-06-14T08:50:11.562Z,45.28
2018-06-14T08:51:48.361Z,46.16
2018-06-14T08:53:28.235Z,46.81
2018-06-14T08:55:04.466Z,45.12
2018-06-14T08:56:41.267Z,46.21
2018-06-14T08:58:18.615Z,45.07
2018-06-14T08:59:56.176Z,45.54
2018-06-14T09:01:31.500Z,46.35
2018-06-14T09:03:07.463Z,49.08
2018-06-14T09:04:43.483Z,47.38
2018-06-14T09:06:19.252Z,47.49
2018-06-14T09:13:31.008Z,47.97
2018-06-14T09:15:08.398Z,49.19
2018-06-14T09:16:44.319Z,49.02
2018-06-14T09:18:21.930Z,45.91
2018-06-14T09:20:00.516Z,46.39
2018-06-14T09:21:37.512Z,44.46
2018-06-14T09:23:13.322Z,42.05
2018-06-14T09:24:49.196Z,43.33
2018-06-14T09:26:25.202Z,41.44
2018-06-14T09:28:00.949Z,41.23
2018-06-14T09:29:37.202Z,38.30
2018-06-14T09:31:12.668Z,39.57
2018-06-14T09:32:48.445Z,41.06
2018-06-14T09:34:25.782Z,40.06
2018-06-14T09:36:02.341Z,39.60
2018-06-14T09:37:39.672Z,39.53
2018-06-14T09:39:16.987Z,39.87
2018-06-14T09:40:52.099Z,39.50
2018-06-14T09:42:28.804Z,39.71
2018-06-14T09:44:07.334Z,40.67
2018-06-14T09:47:16.298Z,39.86
2018-06-14T09:48:57.595Z,37.73
2018-06-14T09:50:34.759Z,39.87
2018-06-14T09:52:11.105Z,40.02
2018-06-14T09:53:48.123Z,38.02
2018-06-14T09:55:26.638Z,37.93
2018-06-14T09:57:02.331Z,37.65
2018-06-14T09:58:38.437Z,39.63
2018-06-14T10:00:17.221Z,38.92
2018-06-14T10:01:53.111Z,38.91
2018-06-14T10:03:29.400Z,36.78
2018-06-14T10:05:10.280Z,38.86
2018-06-14T10:06:47.576Z,38.05
2018-06-14T10:08:24.855Z,40.66
2018-06-14T10:10:00.227Z,37.93
2018-06-14T10:11:35.852Z,36.57
2018-06-14T10:13:12.392Z,36.90
2018-06-14T10:14:48.198Z,39.60
2018-06-14T10:16:25.557Z,39.41
2018-06-14T10:18:02.445Z,37.97
2018-06-14T10:19:42.881Z,39.04
2018-06-14T10:21:18.385Z,37.95
2018-06-14T10:22:56.038Z,38.33
2018-06-14T10:26:22.062Z,39.02
2018-06-14T10:28:02.462Z,37.34
2018-06-14T10:29:45.310Z,39.03
2018-06-14T10:31:24.930Z,40.24
2018-06-14T10:33:05.828Z,38.71
2018-06-14T10:34:42.863Z,39.17
2018-06-14T10:36:18.408Z,39.54
2018-06-14T10:37:54.548Z,38.89
2018-06-14T10:39:35.158Z,39.18
2018-06-14T10:41:13.466Z,39.74
2018-06-14T10:42:51.811Z,41.08
2018-06-14T10:44:30.680Z,37.10
2018-06-14T10:46:10.083Z,39.02
2018-06-14T10:47:53.621Z,40.80
2018-06-14T10:49:28.914Z,37.37
2018-06-14T10:51:08.788Z,40.49
2018-06-14T10:52:45.433Z,40.19
2018-06-14T10:56:18.595Z,38.67
2018-06-14T10:57:59.328Z,39.01
2018-06-14T10:59:38.890Z,41.02
2018-06-14T11:01:17.210Z,42.23
2018-06-14T11:02:54.678Z,40.10
2018-06-14T11:04:34.509Z,39.96
2018-06-14T11:06:13.541Z,42.65
2018-06-14T11:07:51.614Z,41.16
2018-06-14T11:09:28.709Z,40.66
2018-06-14T11:11:07.639Z,38.15
2018-06-14T11:12:54.818Z,37.99
2018-06-14T11:14:32.784Z,37.62
2018-06-14T11:16:10.703Z,34.45
2018-06-14T11:17:53.717Z,37.00
2018-06-14T11:19:33.655Z,35.64
2018-06-14T11:21:18.862Z,35.39
2018-06-14T11:22:56.422Z,35.89
2018-06-14T11:24:45.248Z,34.58
2018-06-14T11:26:23.635Z,35.83
2018-06-14T11:27:59.508Z,35.17
2018-06-14T11:29:34.868Z,36.18
2018-06-14T11:31:12.700Z,36.69
2018-06-14T11:32:49.569Z,38.05
2018-06-14T11:34:26.945Z,39.67
2018-06-14T11:36:05.273Z,36.65
2018-06-14T11:37:41.356Z,38.17
2018-06-14T11:39:20.949Z,38.25
2018-06-14T11:40:56.037Z,37.50
2018-06-14T11:42:37.548Z,38.72
2018-06-14T11:44:13.750Z,37.11
2018-06-14T11:45:50.066Z,38.66
2018-06-14T11:47:28.843Z,39.76
2018-06-14T11:49:05.020Z,37.72
2018-06-14T11:50:41.224Z,40.59
2018-06-14T11:52:17.014Z,39.05
2018-06-14T11:53:53.289Z,38.72
2018-06-14T11:55:29.135Z,40.19
2018-06-14T11:57:05.324Z,38.68
2018-06-14T11:58:41.919Z,39.83
2018-06-14T12:00:19.587Z,38.64
2018-06-14T12:01:56.549Z,41.19
2018-06-14T12:03:35.305Z,39.36
2018-06-14T12:05:12.584Z,40.02
2018-06-14T12:06:48.951Z,40.20
2018-06-14T12:08:27.894Z,37.56
2018-06-14T12:10:04.486Z,38.80
2018-06-14T12:11:42.947Z,38.37
2018-06-14T12:15:00.220Z,39.05
2018-06-14T12:16:36.898Z,39.99
2018-06-14T12:18:12.177Z,42.11
2018-06-14T12:19:51.044Z,40.22
2018-06-14T12:21:31.965Z,38.71
2018-06-14T12:23:09.458Z,41.35
2018-06-14T12:24:47.369Z,39.70
2018-06-14T12:26:23.260Z,42.46
2018-06-14T12:28:00.174Z,40.85
2018-06-14T12:29:39.496Z,39.10
2018-06-14T12:31:16.478Z,41.36
2018-06-14T12:32:53.762Z,39.16
2018-06-14T12:34:30.755Z,38.65
2018-06-14T12:36:09.338Z,36.25
2018-06-14T12:37:46.641Z,40.75
2018-06-14T12:39:29.055Z,41.46
2018-06-14T12:41:04.665Z,40.07
2018-06-14T12:42:43.797Z,39.11
2018-06-14T12:44:21.462Z,39.56
2018-06-14T12:46:00.759Z,37.93
2018-06-14T12:47:38.678Z,40.20
2018-06-14T12:49:17.120Z,37.42
2018-06-14T12:50:54.314Z,40.43
2018-06-14T12:52:30.653Z,38.64
2018-06-14T12:54:09.399Z,40.40
2018-06-14T12:55:47.794Z,41.14
2018-06-14T12:57:25.985Z,38.83
2018-06-14T12:59:07.553Z,39.30
2018-06-14T13:00:49.553Z,37.71
2018-06-14T13:02:30.228Z,40.61
2018-06-14T13:04:09.039Z,40.22
2018-06-14T13:05:49.599Z,42.71
2018-06-14T13:07:29.863Z,40.90
2018-06-14T13:09:09.637Z,41.61
2018-06-14T13:12:42.194Z,42.29
2018-06-14T13:14:18.294Z,40.72
2018-06-14T13:15:57.240Z,40.24
2018-06-14T13:17:43.022Z,39.78
2018-06-14T13:19:19.978Z,42.67
2018-06-14T13:20:56.407Z,41.54
2018-06-14T13:22:38.317Z,40.98
2018-06-14T13:24:24.909Z,40.75
2018-06-14T13:26:06.605Z,41.60
2018-06-14T13:27:42.700Z,41.30
2018-06-14T13:29:18.967Z,40.72
2018-06-14T13:30:56.639Z,43.71
2018-06-14T13:32:33.462Z,42.11
2018-06-14T13:34:09.152Z,42.98
2018-06-14T13:35:47.489Z,42.45
2018-06-14T13:37:26.196Z,42.88
2018-06-14T13:39:01.429Z,44.20
2018-06-14T13:40:39.453Z,43.95
2018-06-14T13:42:19.273Z,44.65
2018-06-14T13:43:59.213Z,44.67
2018-06-14T13:45:36.006Z,43.48
2018-06-14T13:47:13.393Z,45.44
2018-06-14T13:50:39.436Z,44.74
2018-06-14T13:52:15.663Z,42.27
2018-06-14T13:54:09.281Z,42.42
2018-06-14T13:55:45.932Z,44.20
2018-06-14T13:57:23.061Z,45.75
2018-06-14T13:59:00.543Z,44.76
2018-06-14T14:00:41.062Z,42.54
2018-06-14T14:02:29.151Z,41.21
2018-06-14T14:04:07.392Z,44.43
2018-06-14T14:05:44.960Z,44.08
2018-06-14T14:07:27.127Z,42.28
2018-06-14T14:09:06.610Z,41.65
2018-06-14T14:10:43.679Z,43.53
2018-06-14T14:12:20.008Z,42.22
2018-06-14T14:13:57.657Z,44.66
2018-06-14T14:15:39.526Z,44.74
2018-06-14T14:17:16.276Z,43.10
2018-06-14T14:18:53.115Z,42.42
2018-06-14T14:20:31.284Z,43.70
2018-06-14T14:22:07.610Z,43.22
2018-06-14T14:23:47.584Z,43.33
2018-06-14T14:25:23.962Z,42.10
2018-06-14T14:27:04.487Z,43.92
2018-06-14T14:28:41.770Z,44.02
2018-06-14T14:30:20.201Z,44.10
2018-06-14T14:31:57.113Z,42.80
2018-06-14T14:33:46.939Z,43.31
2018-06-14T14:35:29.037Z,43.80
2018-06-14T14:37:10.632Z,44.44
2018-06-14T14:38:56.428Z,43.03
2018-06-14T14:40:37.040Z,44.33
2018-06-14T14:42:16.397Z,44.01
2018-06-14T14:43:54.207Z,43.78
2018-06-14T14:45:32.217Z,44.92
2018-06-14T14:47:08.651Z,42.11
2018-06-14T14:48:49.998Z,41.32
2018-06-14T14:50:26.798Z,43.20
2018-06-14T14:52:05.978Z,45.12
2018-06-14T14:53:48.443Z,42.99
2018-06-14T14:55:27.458Z,43.78
2018-06-14T14:57:07.331Z,44.30
2018-06-14T14:58:57.766Z,45.16
2018-06-14T15:00:33.830Z,44.55
2018-06-14T15:02:13.269Z,44.05
2018-06-14T15:04:00.065Z,43.53
2018-06-14T15:05:40.016Z,43.62
2018-06-14T15:07:16.138Z,44.04
2018-06-14T15:09:06.394Z,44.38
2018-06-14T15:10:51.340Z,44.19
2018-06-14T15:12:34.662Z,44.79
2018-06-14T15:14:10.088Z,43.68
2018-06-14T15:15:55.120Z,45.08
2018-06-14T15:17:36.621Z,44.62
2018-06-14T15:20:57.494Z,47.03
2018-06-14T15:22:54.417Z,44.44
2018-06-14T15:24:38.151Z,48.11
2018-06-14T15:26:21.450Z,45.94
2018-06-14T15:28:10.597Z,43.27
2018-06-14T15:29:53.511Z,43.44
2018-06-14T15:31:33.053Z,45.06
2018-06-14T15:33:13.394Z,45.57
2018-06-14T15:34:55.146Z,46.64
2018-06-14T15:36:48.636Z,46.16
2018-06-14T15:38:38.698Z,45.69
2018-06-14T15:40:23.432Z,47.07
2018-06-14T15:42:04.999Z,46.18
2018-06-14T15:43:46.264Z,47.68
2018-06-14T15:45:23.805Z,45.69
2018-06-14T15:47:07.219Z,46.63
2018-06-14T15:48:50.084Z,47.27
2018-06-14T15:53:55.356Z,47.80
2018-06-14T15:57:38.784Z,47.57
2018-06-14T15:59:24.998Z,47.71
2018-06-14T16:01:01.563Z,49.31
2018-06-14T16:02:41.552Z,47.14
2018-06-14T16:04:19.349Z,49.16
2018-06-14T16:06:05.967Z,50.33
2018-06-14T16:07:49.565Z,51.69
2018-06-14T16:09:26.970Z,50.16
2018-06-14T16:11:05.653Z,50.87
2018-06-14T16:12:44.686Z,53.09
2018-06-14T16:14:19.796Z,53.76
2018-06-14T16:15:57.507Z,56.42
2018-06-14T16:17:37.875Z,56.63
2018-06-14T16:19:16.699Z,57.86
2018-06-14T16:20:55.399Z,57.90
2018-06-14T16:22:33.456Z,59.71
2018-06-14T16:26:05.977Z,60.75
2018-06-14T16:27:44.617Z,60.97
2018-06-14T16:29:23.213Z,62.33
2018-06-14T16:31:01.392Z,63.40
2018-06-14T16:34:31.282Z,63.94
2018-06-14T16:36:11.553Z,64.04
2018-06-14T16:37:49.658Z,64.27
2018-06-14T16:39:30.552Z,64.77
2018-06-14T16:41:09.573Z,65.96
2018-06-14T16:42:49.498Z,66.39
2018-06-14T16:44:27.589Z,67.86
2018-06-14T16:46:08.161Z,66.65
2018-06-14T16:47:48.454Z,68.73
2018-06-14T16:49:25.748Z,68.59
2018-06-14T16:51:02.004Z,69.82
2018-06-14T16:52:40.445Z,69.31
2018-06-14T16:54:17.119Z,71.58
2018-06-14T16:55:52.396Z,72.82
2018-06-14T16:57:29.850Z,73.46
2018-06-14T16:59:05.823Z,74.76
2018-06-14T17:00:43.310Z,74.40
2018-06-14T17:02:19.613Z,75.55
2018-06-14T17:03:57.374Z,75.66
2018-06-14T17:05:34.703Z,75.50
2018-06-14T17:07:17.404Z,76.93
2018-06-14T17:08:55.549Z,77.33
2018-06-14T17:10:36.609Z,78.01
2018-06-14T17:12:14.991Z,78.16
2018-06-14T17:13:54.642Z,78.80
2018-06-14T17:15:32.846Z,78.50
2018-06-14T17:17:09.193Z,78.96
2018-06-14T17:18:50.532Z,78.94
2018-06-14T17:20:30.721Z,79.30
2018-06-14T17:22:08.672Z,79.19
2018-06-14T17:23:46.986Z,79.21
2018-06-14T17:25:27.091Z,79.62
2018-06-14T17:27:09.313Z,79.75
2018-06-14T17:28:50.711Z,80.08
2018-06-14T17:30:30.021Z,80.16
2018-06-14T17:32:10.296Z,80.34
2018-06-14T17:33:50.850Z,79.96
2018-06-14T17:35:31.225Z,79.99
2018-06-14T17:37:09.306Z,80.71
2018-06-14T17:38:48.730Z,80.96
2018-06-14T17:40:33.737Z,81.37
2018-06-14T17:42:16.765Z,81.49
2018-06-14T17:44:01.379Z,81.17
2018-06-14T17:45:41.736Z,81.64
2018-06-14T17:47:21.712Z,81.57
2018-06-14T17:49:03.342Z,81.72
2018-06-14T17:50:48.282Z,82.22
2018-06-14T17:52:36.332Z,81.72
2018-06-14T17:54:20.019Z,81.12
2018-06-14T17:55:58.207Z,80.65
2018-06-14T17:57:44.790Z,82.28
2018-06-14T17:59:27.280Z,81.74
2018-06-14T18:01:12.116Z,83.06
2018-06-14T18:02:53.549Z,82.92
2018-06-14T18:04:41.555Z,82.69
2018-06-14T18:06:23.749Z,82.32
2018-06-14T18:08:08.811Z,82.60
2018-06-14T18:09:46.690Z,83.17
2018-06-14T18:11:25.874Z,83.09
2018-06-14T18:13:02.639Z,83.37
2018-06-14T18:14:41.479Z,83.58
2018-06-14T18:16:18.244Z,84.16
2018-06-14T18:17:59.459Z,83.54
2018-06-14T18:19:40.245Z,84.21
2018-06-14T18:21:21.433Z,83.92
2018-06-14T18:23:11.185Z,83.85
2018-06-14T18:24:50.311Z,84.01
2018-06-14T18:26:37.045Z,83.63
2018-06-14T18:28:13.860Z,84.41
2018-06-14T18:29:50.988Z,84.23
2018-06-14T18:31:30.600Z,84.25
2018-06-14T18:33:07.993Z,84.30
2018-06-14T18:34:44.747Z,84.61
2018-06-14T18:36:25.480Z,84.55
2018-06-14T18:38:02.898Z,84.65
2018-06-14T18:39:40.885Z,84.46
2018-06-14T18:43:22.519Z,84.32
2018-06-14T18:45:10.373Z,84.32
2018-06-14T18:46:50.640Z,84.99
2018-06-14T18:48:34.651Z,84.24
2018-06-14T18:50:13.639Z,84.42
2018-06-14T18:53:57.331Z,85.01
2018-06-14T18:55:42.100Z,84.45
2018-06-14T18:57:22.220Z,84.18
2018-06-14T18:59:16.266Z,84.63
2018-06-14T19:00:59.273Z,84.11
2018-06-14T19:02:38.097Z,83.65
2018-06-14T19:04:20.046Z,84.15
2018-06-14T19:06:08.081Z,84.13
2018-06-14T19:07:46.761Z,84.46
2018-06-14T19:09:26.316Z,85.02
2018-06-14T19:12:57.375Z,84.34
2018-06-14T19:14:37.224Z,84.65
2018-06-14T19:16:20.533Z,84.09
2018-06-14T19:18:02.077Z,84.10
2018-06-14T19:19:38.246Z,84.66
2018-06-14T19:21:15.653Z,84.63
2018-06-14T19:22:54.018Z,84.85
2018-06-14T19:24:29.268Z,85.01
2018-06-14T19:26:05.207Z,84.63
2018-06-14T19:27:42.807Z,84.61
2018-06-14T19:29:19.544Z,84.62
2018-06-14T19:30:57.412Z,84.88
2018-06-14T19:32:41.798Z,85.05
2018-06-14T19:34:17.339Z,84.93
2018-06-14T19:35:56.236Z,85.09
2018-06-14T19:37:37.610Z,85.44
2018-06-14T19:39:16.442Z,85.92
2018-06-14T19:40:54.538Z,85.35
2018-06-14T19:42:40.562Z,85.69
2018-06-14T19:44:21.937Z,85.60
2018-06-14T19:46:05.209Z,85.20
2018-06-14T19:47:47.864Z,85.37
2018-06-14T19:49:29.567Z,85.20
2018-06-14T19:51:10.909Z,85.52
2018-06-14T19:53:54.006Z,85.89
2018-06-14T19:55:37.667Z,85.89
2018-06-14T19:57:22.879Z,85.79
2018-06-14T19:59:06.868Z,85.27
2018-06-14T20:00:49.448Z,85.60
2018-06-14T20:02:27.850Z,85.53
2018-06-14T20:04:06.418Z,85.59
2018-06-14T20:05:45.060Z,86.09
2018-06-14T20:07:25.972Z,86.01
2018-06-14T20:09:05.419Z,86.20
2018-06-14T20:10:43.568Z,86.45
2018-06-14T20:12:26.297Z,86.25
2018-06-14T20:14:07.732Z,86.05
2018-06-14T20:15:47.431Z,85.92
2018-06-14T20:17:24.617Z,86.12
2018-06-14T20:19:00.524Z,85.65
2018-06-14T20:20:43.276Z,86.06
2018-06-14T20:22:20.560Z,85.58
2018-06-14T20:23:58.322Z,86.24
2018-06-14T20:25:37.014Z,86.72
2018-06-14T20:27:20.527Z,86.55
2018-06-14T20:29:02.285Z,86.55
2018-06-14T20:30:42.507Z,86.32
2018-06-14T20:32:23.462Z,86.58
2018-06-14T20:34:02.747Z,87.07
2018-06-14T20:35:40.605Z,86.39
2018-06-14T20:37:22.294Z,87.16
2018-06-14T20:39:04.608Z,87.20
2018-06-14T20:40:46.592Z,86.68
2018-06-14T20:42:25.955Z,87.54
2018-06-14T20:44:22.099Z,86.96
2018-06-14T20:46:10.568Z,87.10
2018-06-14T20:47:52.167Z,87.29
2018-06-14T20:49:35.314Z,87.01
2018-06-14T20:51:17.952Z,87.20
2018-06-14T20:54:59.934Z,87.36
2018-06-14T20:56:45.698Z,87.62
2018-06-14T20:58:25.967Z,87.26
2018-06-14T21:00:06.350Z,87.59
2018-06-14T21:01:46.241Z,87.42
2018-06-14T21:03:28.356Z,87.04
2018-06-14T21:05:07.962Z,87.09
2018-06-14T21:06:52.929Z,87.33
2018-06-14T21:08:37.638Z,87.41
2018-06-14T21:10:16.348Z,87.29
2018-06-14T21:11:59.541Z,87.34
2018-06-14T21:13:52.278Z,87.73
2018-06-14T21:15:36.609Z,87.45
2018-06-14T21:17:18.744Z,87.33
2018-06-14T21:18:58.964Z,86.92
2018-06-14T21:22:24.752Z,87.55
2018-06-14T21:24:10.364Z,87.47
2018-06-14T21:25:50.861Z,87.26
2018-06-14T21:27:28.506Z,87.24
2018-06-14T21:29:15.637Z,87.94
2018-06-14T21:31:02.335Z,87.51
2018-06-14T21:32:44.653Z,87.39
2018-06-14T21:36:19.844Z,88.11
2018-06-14T21:39:45.576Z,88.22
2018-06-14T21:41:27.723Z,87.31
2018-06-14T21:43:14.761Z,87.68
2018-06-14T21:44:54.429Z,87.20
2018-06-14T21:46:34.257Z,87.42
2018-06-14T21:48:17.291Z,87.97
2018-06-14T21:50:15.511Z,87.36